Time;durP1;ratioP1;P1;durP2;ratioP2;P2;SDS_P1;SDS_P2;PMS_P1;PMS_P2;Temp;Humidity;BMP_temperature;BMP_pressure;BME280_temperature;BME280_humidity;BME280_pressure;Samples;Min_cycle;Max_cycle;Signal;HPM_P1;HPM_P2
2023/03/11 00:00:18;;;;;;;;;;;;;;;4.81;62.61;99086.28;5044742;28;2771;-87
2023/03/11 00:02:45;;;;;;;;;;;;;;;4.83;62.53;99076.22;5065034;28;3714;-87
2023/03/11 00:05:11;;;;;;;;;;;;;;;4.81;62.58;99072.13;5025077;28;3312;-86
2023/03/11 00:07:39;;;;;;;;;;;;;;;4.85;62.35;99071.47;5028906;28;3413;-86
2023/03/11 00:10:05;;;;;;;;;;;;;;;4.84;62.28;99064.50;5037068;28;2478;-85
2023/03/11 00:12:32;;;;;;;;;;;;;;;4.80;62.55;99068.66;5041892;28;2810;-87
2023/03/11 00:14:58;;;;;;;;;;;;;;;4.81;62.44;99070.28;5041478;28;2834;-86
2023/03/11 00:17:25;;;;;;;;;;;;;;;4.80;62.49;99063.31;5054316;28;2606;-86
2023/03/11 00:19:51;;;;;;;;;;;;;;;4.78;62.55;99060.03;5036594;28;2945;-86
2023/03/11 00:22:18;;;;;;;;;;;;;;;4.75;62.54;99063.16;5046105;28;2719;-85
2023/03/11 00:24:45;;;;;;;;;;;;;;;4.78;62.46;99060.03;5056329;28;3361;-86
2023/03/11 00:27:11;;;;;;;;;;;;;;;4.80;62.46;99054.50;5064883;28;2519;-86
2023/03/11 00:29:38;;;;;;;;;;;;;;;4.80;62.20;99049.16;5040280;28;3138;-87
2023/03/11 00:32:05;;;;;;;;;;;;;;;4.77;62.60;99059.22;5024016;28;2901;-86
2023/03/11 00:34:32;;;;;;;;;;;;;;;4.77;62.47;99056.56;5039703;28;2674;-86
2023/03/11 00:36:58;;;;;;;;;;;;;;;4.75;62.53;99060.47;5023442;28;3592;-85
2023/03/11 00:39:25;;;;;;;;;;;;;;;4.76;62.66;99057.63;5042128;28;2411;-86
2023/03/11 00:41:52;;;;;;;;;;;;;;;4.76;62.29;99070.94;5057126;28;2827;-85
2023/03/11 00:44:19;;;;;;;;;;;;;;;4.77;62.36;99067.22;5038099;28;2644;-87
2023/03/11 00:46:45;;;;;;;;;;;;;;;4.79;62.24;99075.00;5022164;28;2593;-85
2023/03/11 00:49:12;;;;;;;;;;;;;;;4.74;62.39;99067.66;5024783;28;3621;-85
2023/03/11 00:51:39;;;;;;;;;;;;;;;4.74;61.91;99070.34;5030000;28;2652;-85
2023/03/11 00:54:06;;;;;;;;;;;;;;;4.80;62.04;99065.97;5048087;28;3972;-86
2023/03/11 00:56:33;;;;;;;;;;;;;;;4.77;62.23;99074.44;5038326;28;2925;-85
2023/03/11 00:58:59;;;;;;;;;;;;;;;4.84;61.96;99071.69;5021049;28;2674;-86
2023/03/11 01:01:26;;;;;;;;;;;;;;;4.77;62.16;99075.25;5043185;28;3383;-86
2023/03/11 01:03:52;;;;;;;;;;;;;;;4.76;62.10;99078.94;5040796;28;2985;-85
2023/03/11 01:06:19;;;;;;;;;;;;;;;4.72;62.50;99068.91;5055763;28;2821;-85
2023/03/11 01:08:46;;;;;;;;;;;;;;;4.74;62.40;99073.00;5058195;28;3693;-84
2023/03/11 01:11:12;;;;;;;;;;;;;;;4.75;62.24;99066.63;5054244;28;2725;-87
2023/03/11 01:13:39;;;;;;;;;;;;;;;4.79;62.06;99072.34;5040365;28;2694;-86
2023/03/11 01:16:06;;;;;;;;;;;;;;;4.75;62.08;99060.47;5053034;28;3189;-86
2023/03/11 01:18:33;;;;;;;;;;;;;;;4.74;62.04;99069.53;5059965;28;2563;-85
2023/03/11 01:21:00;;;;;;;;;;;;;;;4.77;61.98;99067.22;5054406;28;2697;-85
2023/03/11 01:23:26;;;;;;;;;;;;;;;4.72;62.08;99064.41;5045870;28;2726;-85
2023/03/11 01:25:52;;;;;;;;;;;;;;;4.72;62.15;99059.06;5041211;28;3580;-85
2023/03/11 01:28:19;;;;;;;;;;;;;;;4.72;61.87;99048.38;5022527;28;2743;-86
2023/03/11 01:30:46;;;;;;;;;;;;;;;4.75;61.98;99047.97;5037709;28;3043;-86
2023/03/11 01:33:12;;;;;;;;;;;;;;;4.78;61.81;99046.72;5039024;28;3535;-85
2023/03/11 01:35:41;;;;;;;;;;;;;;;4.75;61.89;99045.28;5056578;28;2595;-84
2023/03/11 01:38:08;;;;;;;;;;;;;;;4.71;61.89;99038.78;5040588;28;3155;-86
2023/03/11 01:40:34;;;;;;;;;;;;;;;4.72;61.96;99043.06;5049200;28;4377;-86
2023/03/11 01:43:01;;;;;;;;;;;;;;;4.74;61.81;99040.19;5021093;28;2660;-86
2023/03/11 01:45:28;;;;;;;;;;;;;;;4.73;61.97;99035.88;5037940;28;3398;-86
2023/03/11 01:47:55;;;;;;;;;;;;;;;4.70;62.01;99037.13;5020008;28;2650;-85
2023/03/11 01:50:21;;;;;;;;;;;;;;;4.69;62.04;99042.69;5042722;28;3562;-86
2023/03/11 01:52:48;;;;;;;;;;;;;;;4.74;61.61;99037.53;5042082;28;3720;-86
2023/03/11 01:55:15;;;;;;;;;;;;;;;4.74;61.97;99037.53;5023858;28;3486;-86
2023/03/11 01:57:41;;;;;;;;;;;;;;;4.74;61.66;99043.66;5036811;28;2702;-86
2023/03/11 02:00:09;;;;;;;;;;;;;;;4.69;61.79;99040.03;5039059;28;4205;-84
2023/03/11 02:02:36;;;;;;;;;;;;;;;4.77;61.66;99035.22;5046746;28;2728;-84
2023/03/11 02:05:02;;;;;;;;;;;;;;;4.78;61.54;99038.69;5020779;28;3494;-86
2023/03/11 02:07:29;;;;;;;;;;;;;;;4.74;61.57;99037.53;5043469;28;3469;-85
2023/03/11 02:09:56;;;;;;;;;;;;;;;4.72;61.66;99031.59;5045158;28;2754;-87
2023/03/11 02:12:22;;;;;;;;;;;;;;;4.76;61.57;99036.28;5042103;28;3695;-85
2023/03/11 02:14:48;;;;;;;;;;;;;;;4.75;61.71;99033.81;5040211;28;2816;-86
2023/03/11 02:17:15;;;;;;;;;;;;;;;4.74;61.56;99037.53;5054012;28;2642;-85
2023/03/11 02:19:42;;;;;;;;;;;;;;;4.73;61.44;99028.69;5056088;28;3596;-86
2023/03/11 02:22:08;;;;;;;;;;;;;;;4.75;61.37;99023.94;5060053;28;2777;-86
2023/03/11 02:24:35;;;;;;;;;;;;;;;4.69;61.53;99019.50;5040394;28;2512;-84
2023/03/11 02:27:01;;;;;;;;;;;;;;;4.73;61.43;99019.88;5028248;28;2755;-84
2023/03/11 02:29:28;;;;;;;;;;;;;;;4.72;61.41;99015.56;5060956;28;3586;-86
2023/03/11 02:31:55;;;;;;;;;;;;;;;4.73;61.20;99015.34;5040041;28;2622;-86
2023/03/11 02:34:22;;;;;;;;;;;;;;;4.72;61.31;99016.38;5036866;28;4147;-86
2023/03/11 02:36:49;;;;;;;;;;;;;;;4.67;61.47;99021.56;5020754;28;2801;-86
2023/03/11 02:39:16;;;;;;;;;;;;;;;4.68;61.64;99023.22;5039111;28;2605;-85
2023/03/11 02:41:42;;;;;;;;;;;;;;;4.71;61.33;99020.09;5058494;28;3357;-85
2023/03/11 02:44:09;;;;;;;;;;;;;;;4.66;61.42;99022.59;5038467;28;4399;-85
2023/03/11 02:46:35;;;;;;;;;;;;;;;4.69;61.48;99019.50;5055067;28;2555;-87
2023/03/11 02:49:02;;;;;;;;;;;;;;;4.72;61.29;99027.06;5054780;28;2803;-85
2023/03/11 02:51:28;;;;;;;;;;;;;;;4.67;61.43;99028.75;5039889;28;4430;-85
2023/03/11 02:53:55;;;;;;;;;;;;;;;4.73;61.03;99031.34;5039274;28;2742;-85
2023/03/11 02:56:22;;;;;;;;;;;;;;;4.68;61.28;99028.53;5039109;28;3346;-86
2023/03/11 02:58:49;;;;;;;;;;;;;;;4.73;61.28;99025.19;5058131;28;3502;-86
2023/03/11 03:01:15;;;;;;;;;;;;;;;4.72;61.09;99029.72;5047930;28;4049;-86
2023/03/11 03:03:42;;;;;;;;;;;;;;;4.71;61.08;99025.44;5032780;28;3843;-86
2023/03/11 03:06:08;;;;;;;;;;;;;;;4.71;61.09;99020.09;5051018;28;3772;-85
2023/03/11 03:08:35;;;;;;;;;;;;;;;4.75;61.02;99020.47;5038272;28;3701;-86
2023/03/11 03:11:02;;;;;;;;;;;;;;;4.65;61.37;99025.50;5067821;28;4253;-86
2023/03/11 03:13:28;;;;;;;;;;;;;;;4.71;61.00;99022.75;5047049;28;3614;-86
2023/03/11 03:15:55;;;;;;;;;;;;;;;4.66;61.17;99021.78;5070239;28;3966;-87
2023/03/11 03:18:21;;;;;;;;;;;;;;;4.72;60.90;99024.38;5039565;28;3122;-87
2023/03/11 03:20:48;;;;;;;;;;;;;;;4.59;61.13;99029.00;5035246;28;2016;-86
2023/03/11 03:23:14;;;;;;;;;;;;;;;4.68;60.89;99025.88;5048064;28;3773;-85
2023/03/11 03:25:41;;;;;;;;;;;;;;;4.68;61.33;99027.72;5053925;28;3801;-85
2023/03/11 03:28:07;;;;;;;;;;;;;;;4.63;61.15;99024.88;5052653;28;3431;-86
2023/03/11 03:30:34;;;;;;;;;;;;;;;4.67;60.89;99031.41;5049147;28;3874;-85
2023/03/11 03:33:00;;;;;;;;;;;;;;;4.67;61.00;99020.75;5049607;28;2611;-85
2023/03/11 03:35:27;;;;;;;;;;;;;;;4.67;60.95;99021.56;5070867;28;3665;-85
2023/03/11 03:37:54;;;;;;;;;;;;;;;4.61;61.12;99026.94;5034645;28;3799;-84
2023/03/11 03:40:20;;;;;;;;;;;;;;;4.69;60.85;99030.16;5030563;28;3682;-86
2023/03/11 03:42:47;;;;;;;;;;;;;;;4.65;60.96;99025.50;5064183;28;4049;-86
2023/03/11 03:45:13;;;;;;;;;;;;;;;4.72;60.88;99028.91;5048386;28;3773;-86
2023/03/11 03:47:40;;;;;;;;;;;;;;;4.66;60.77;99027.94;5051674;28;3778;-86
2023/03/11 03:50:07;;;;;;;;;;;;;;;4.63;60.91;99031.03;5047293;28;3732;-86
2023/03/11 03:52:33;;;;;;;;;;;;;;;4.68;60.82;99023.22;5050535;28;3496;-87
2023/03/11 03:55:00;;;;;;;;;;;;;;;4.60;60.86;99028.00;5034884;28;3760;-86
2023/03/11 03:57:26;;;;;;;;;;;;;;;4.64;60.76;99030.00;5051740;28;3300;-86
2023/03/11 03:59:53;;;;;;;;;;;;;;;4.63;60.81;99031.03;5050324;28;3643;-85
2023/03/11 04:02:19;;;;;;;;;;;;;;;4.61;60.82;99033.09;5054685;28;3708;-86
2023/03/11 04:04:46;;;;;;;;;;;;;;;4.61;60.88;99033.09;5032993;28;1281;-86
2023/03/11 04:07:12;;;;;;;;;;;;;;;4.69;60.58;99032.00;5066991;28;3433;-86
2023/03/11 04:09:39;;;;;;;;;;;;;;;4.67;60.55;99023.41;5034256;28;3609;-86
2023/03/11 04:12:05;;;;;;;;;;;;;;;4.69;60.41;99024.00;5036545;28;3746;-86
2023/03/11 04:14:52;;;;;;;;;;;;;;;4.66;60.54;99016.44;5048995;28;3817;-87
2023/03/11 04:17:39;;;;;;;;;;;;;;;4.59;60.76;99008.53;5055958;28;3735;-86
2023/03/11 04:20:26;;;;;;;;;;;;;;;4.63;60.59;99006.22;5045767;28;3428;-85
2023/03/11 04:23:18;;;;;;;;;;;;;;;4.56;60.88;99008.97;5055202;28;4022;-84
2023/03/11 04:26:10;;;;;;;;;;;;;;;4.55;60.82;99015.31;5049030;28;3390;-84
2023/03/11 04:29:02;;;;;;;;;;;;;;;4.57;60.83;99015.09;5052489;28;3692;-86
2023/03/11 04:31:53;;;;;;;;;;;;;;;4.62;60.56;99028.56;5041365;28;3753;-86
2023/03/11 04:34:45;;;;;;;;;;;;;;;4.57;60.74;99039.09;5048210;28;1782;-86
2023/03/11 04:37:36;;;;;;;;;;;;;;;4.54;60.99;99024.34;5053914;28;3391;-86
2023/03/11 04:40:28;;;;;;;;;;;;;;;4.58;60.77;99028.19;5056112;28;3847;-86
2023/03/11 04:43:20;;;;;;;;;;;;;;;4.54;60.44;99035.00;5053783;28;3399;-86
2023/03/11 04:46:12;;;;;;;;;;;;;;;4.54;60.70;99021.69;5053808;28;3734;-86
2023/03/11 04:49:04;;;;;;;;;;;;;;;4.54;60.61;99025.16;5053598;28;3383;-85
2023/03/11 04:51:55;;;;;;;;;;;;;;;4.57;60.49;99023.91;5053474;28;3441;-86
2023/03/11 04:54:47;;;;;;;;;;;;;;;4.60;60.28;99020.00;5052844;28;3860;-86
2023/03/11 04:57:39;;;;;;;;;;;;;;;4.59;60.22;99005.84;5054165;28;3200;-86
2023/03/11 05:00:31;;;;;;;;;;;;;;;4.57;60.50;98994.56;5053042;28;3702;-86
2023/03/11 05:03:23;;;;;;;;;;;;;;;4.55;60.42;98992.13;5047437;28;2702;-86
2023/03/11 05:06:15;;;;;;;;;;;;;;;4.63;60.35;98987.56;5050453;28;2681;-88
2023/03/11 05:09:07;;;;;;;;;;;;;;;4.56;60.28;98982.28;5041181;28;2503;-86
2023/03/11 05:11:59;;;;;;;;;;;;;;;4.59;60.44;98976.53;5040118;28;2467;-85
2023/03/11 05:14:51;;;;;;;;;;;;;;;4.65;60.22;98980.16;5043328;28;2593;-86
2023/03/11 05:17:43;;;;;;;;;;;;;;;4.56;60.23;98976.97;5039638;28;3469;-86
2023/03/11 05:20:35;;;;;;;;;;;;;;;4.55;60.36;98975.31;5040353;28;3307;-85
2023/03/11 05:23:27;;;;;;;;;;;;;;;4.59;60.11;98965.00;5042414;28;3177;-85
2023/03/11 05:26:19;;;;;;;;;;;;;;;4.53;60.53;98972.06;5040295;28;4246;-87
2023/03/11 05:29:11;;;;;;;;;;;;;;;4.48;60.51;98975.38;5042922;28;2581;-85
2023/03/11 05:32:03;;;;;;;;;;;;;;;4.49;60.28;98974.31;5046081;28;3458;-86
2023/03/11 05:34:55;;;;;;;;;;;;;;;4.48;60.29;98978.03;5040868;28;2514;-85
2023/03/11 05:37:48;;;;;;;;;;;;;;;4.48;60.25;98978.03;5040960;28;2647;-85
2023/03/11 05:40:40;;;;;;;;;;;;;;;4.49;60.34;98976.19;5044242;28;2484;-85
2023/03/11 05:43:32;;;;;;;;;;;;;;;4.50;60.29;98970.66;5042138;28;2996;-86
2023/03/11 05:46:24;;;;;;;;;;;;;;;4.55;60.19;98977.97;5044137;28;3278;-84
2023/03/11 05:49:15;;;;;;;;;;;;;;;4.46;60.19;98971.28;5037411;28;2848;-86
2023/03/11 05:51:41;;;;;;;;;;;;;;;4.50;60.14;98981.31;5040533;28;2814;-87
2023/03/11 05:54:13;;;;;;;;;;;;;;;4.51;60.07;98984.78;5037711;28;2754;-87
2023/03/11 05:57:08;;;;;;;;;;;;;;;4.46;60.25;98988.09;5040453;28;2591;-86
2023/03/11 06:00:00;;;;;;;;;;;;;;;4.46;60.20;98973.94;5039930;28;2490;-86
2023/03/11 06:02:52;;;;;;;;;;;;;;;4.48;60.09;98978.03;5052148;28;3690;-87
2023/03/11 06:05:44;;;;;;;;;;;;;;;4.47;59.78;98980.91;5044659;28;3922;-86
2023/03/11 06:08:36;;;;;;;;;;;;;;;4.54;59.90;98985.16;5154100;22;1914;-81
2023/03/11 06:11:28;;;;;;;;;;;;;;;4.54;59.71;98974.50;5142760;28;407;-80
2023/03/11 06:14:20;;;;;;;;;;;;;;;4.46;60.10;98971.28;5142622;28;326;-82
2023/03/11 06:17:12;;;;;;;;;;;;;;;4.45;59.97;98969.66;5142620;28;290;-81
2023/03/11 06:20:05;;;;;;;;;;;;;;;4.45;60.03;98969.66;5142478;28;532;-81
2023/03/11 06:22:58;;;;;;;;;;;;;;;4.45;60.01;98964.34;5142649;28;1884;-83
2023/03/11 06:25:50;;;;;;;;;;;;;;;4.50;59.73;98961.81;5142698;28;499;-80
2023/03/11 06:28:42;;;;;;;;;;;;;;;4.45;59.86;98961.66;5142685;28;424;-79
2023/03/11 06:31:35;;;;;;;;;;;;;;;4.49;59.85;98960.19;5135965;28;2327;-84
2023/03/11 06:34:27;;;;;;;;;;;;;;;4.42;59.77;98965.59;5122370;27;2471;-86
2023/03/11 06:37:18;;;;;;;;;;;;;;;4.51;59.68;98968.78;5126196;27;2444;-85
2023/03/11 06:43:26;;;;;;;;;;;;;;;4.44;59.99;98970.69;5123046;27;2394;-86
2023/03/11 06:46:18;;;;;;;;;;;;;;;4.38;59.89;98969.69;5111109;27;2506;-85
2023/03/11 06:49:09;;;;;;;;;;;;;;;4.37;60.16;98973.41;5117684;27;2457;-84
2023/03/11 06:52:01;;;;;;;;;;;;;;;4.43;59.86;98977.88;5112906;27;2460;-86
2023/03/11 06:54:53;;;;;;;;;;;;;;;4.41;59.76;98971.13;5119894;27;2452;-86
2023/03/11 06:57:45;;;;;;;;;;;;;;;4.44;59.78;98970.69;5126018;28;2188;-86
2023/03/11 07:00:37;;;;;;;;;;;;;;;4.42;59.98;98970.09;5126493;28;2405;-86
2023/03/11 07:03:28;;;;;;;;;;;;;;;4.34;60.14;98971.19;5127165;28;2186;-90
2023/03/11 07:06:20;;;;;;;;;;;;;;;4.49;59.46;98979.66;5127075;27;2159;-85
2023/03/11 07:09:11;;;;;;;;;;;;;;;4.40;59.74;98978.31;5129169;27;1981;-87
2023/03/11 07:12:03;;;;;;;;;;;;;;;4.47;59.68;98984.41;5124184;28;2163;-88
2023/03/11 07:14:55;;;;;;;;;;;;;;;4.46;59.69;98981.94;5124613;27;2086;-88
2023/03/11 07:17:46;;;;;;;;;;;;;;;4.46;59.67;98966.78;5112043;28;1894;-88
2023/03/11 07:20:38;;;;;;;;;;;;;;;4.44;59.61;98966.19;5125815;28;1719;-87
2023/03/11 07:23:30;;;;;;;;;;;;;;;4.37;59.77;98954.75;5125616;27;4718;-89
2023/03/11 07:26:22;;;;;;;;;;;;;;;4.41;59.74;98950.63;5126797;28;4507;-88
2023/03/11 07:29:14;;;;;;;;;;;;;;;4.52;59.47;98955.22;5125984;28;5087;-87
2023/03/11 07:32:06;;;;;;;;;;;;;;;4.41;59.83;98957.78;5125647;28;4040;-87
2023/03/11 07:34:58;;;;;;;;;;;;;;;4.36;59.96;98965.66;5119079;28;2674;-89
2023/03/11 07:37:53;;;;;;;;;;;;;;;4.39;59.96;98955.34;5115767;28;2442;-90
2023/03/11 07:40:45;;;;;;;;;;;;;;;4.43;59.81;98967.19;5117343;28;2706;-90
2023/03/11 07:43:37;;;;;;;;;;;;;;;4.43;59.67;98959.22;5116756;27;2856;-89
2023/03/11 07:46:29;;;;;;;;;;;;;;;4.40;59.74;98961.50;5113429;27;2504;-89
2023/03/11 07:49:21;;;;;;;;;;;;;;;4.41;59.62;98950.63;5120867;27;2493;-88
2023/03/11 07:52:14;;;;;;;;;;;;;;;4.43;59.76;98955.72;5120536;27;2791;-90
2023/03/11 07:55:05;;;;;;;;;;;;;;;4.45;59.65;98954.47;5122817;27;4257;-90
2023/03/11 07:57:57;;;;;;;;;;;;;;;4.41;59.93;98955.97;5117096;27;3601;-88
2023/03/11 08:00:49;;;;;;;;;;;;;;;4.39;60.02;98946.56;5112843;27;2978;-89
2023/03/11 08:03:41;;;;;;;;;;;;;;;4.42;59.95;98940.78;5116630;27;3511;-88
2023/03/11 08:06:33;;;;;;;;;;;;;;;4.46;59.76;98937.44;5112879;27;2509;-89
2023/03/11 08:09:25;;;;;;;;;;;;;;;4.46;59.59;98932.09;5113655;27;2765;-88
2023/03/11 08:12:17;;;;;;;;;;;;;;;4.50;59.61;98925.31;5115454;27;3122;-89
2023/03/11 08:15:09;;;;;;;;;;;;;;;4.48;59.71;98914.06;5112429;27;2962;-89
2023/03/11 08:18:01;;;;;;;;;;;;;;;4.51;59.67;98928.81;5112363;27;3507;-88
2023/03/11 08:20:54;;;;;;;;;;;;;;;4.51;59.58;98920.81;5115976;27;2766;-88
2023/03/11 08:23:46;;;;;;;;;;;;;;;4.52;59.61;98917.09;5112854;27;2566;-90
2023/03/11 08:26:38;;;;;;;;;;;;;;;4.45;59.77;98905.69;5112236;27;3012;-87
2023/03/11 08:29:30;;;;;;;;;;;;;;;4.49;59.67;98917.53;5110452;27;3093;-89
2023/03/11 08:32:22;;;;;;;;;;;;;;;4.57;59.76;98911.09;5127025;27;4327;-87
2023/03/11 08:35:14;;;;;;;;;;;;;;;4.49;59.69;98904.19;5130763;27;2716;-89
2023/03/11 08:38:06;;;;;;;;;;;;;;;4.51;59.86;98894.94;5128606;27;3779;-87
2023/03/11 08:40:58;;;;;;;;;;;;;;;4.45;60.00;98895.03;5123005;27;3692;-89
2023/03/11 08:43:51;;;;;;;;;;;;;;;4.48;59.86;98902.56;5130344;27;3297;-90
2023/03/11 08:46:45;;;;;;;;;;;;;;;4.46;60.09;98910.78;5129298;27;3738;-87
2023/03/11 08:49:37;;;;;;;;;;;;;;;4.54;59.62;98917.69;5134568;27;1791;-90
2023/03/11 08:52:30;;;;;;;;;;;;;;;4.59;59.59;98928.53;5219933;22;3781;-84
2023/03/11 08:55:26;;;;;;;;;;;;;;;4.52;59.79;98919.75;5114052;28;5131;-84
2023/03/11 08:58:18;;;;;;;;;;;;;;;4.58;59.75;98912.72;5117467;27;1433;-84
2023/03/11 09:01:10;;;;;;;;;;;;;;;4.66;59.44;98912.44;5109906;28;3889;-83
2023/03/11 09:04:01;;;;;;;;;;;;;;;4.54;59.78;98905.16;5114169;27;1957;-83
2023/03/11 09:06:53;;;;;;;;;;;;;;;4.59;59.77;98901.84;5105437;27;2121;-84
2023/03/11 09:09:45;;;;;;;;;;;;;;;4.62;59.75;98896.06;5119253;27;1895;-81
2023/03/11 09:12:37;;;;;;;;;;;;;;;4.61;59.90;98896.28;5115514;28;2038;-83
2023/03/11 09:15:29;;;;;;;;;;;;;;;4.61;59.73;98893.63;5110789;28;4247;-83
2023/03/11 09:18:20;;;;;;;;;;;;;;;4.60;59.96;98894.66;5110910;27;3879;-83
2023/03/11 09:21:12;;;;;;;;;;;;;;;4.57;59.89;98898.59;5104821;27;1899;-80
2023/03/11 09:24:04;;;;;;;;;;;;;;;4.67;59.64;98895.41;5112473;27;1975;-82
2023/03/11 09:26:56;;;;;;;;;;;;;;;4.61;59.57;98912.28;5108161;28;2089;-81
2023/03/11 09:29:48;;;;;;;;;;;;;;;4.62;59.90;98912.09;5115322;27;2160;-81
2023/03/11 09:32:40;;;;;;;;;;;;;;;4.66;59.91;98905.25;5111944;27;2286;-82
2023/03/11 09:35:31;;;;;;;;;;;;;;;4.71;59.70;98893.94;5111886;27;2029;-81
2023/03/11 09:38:23;;;;;;;;;;;;;;;4.64;60.00;98893.19;5113164;27;2085;-82
2023/03/11 09:41:15;;;;;;;;;;;;;;;4.67;59.88;98882.06;5112962;27;3415;-85
2023/03/11 09:44:07;;;;;;;;;;;;;;;4.68;59.99;98881.84;5111097;27;4374;-84
2023/03/11 09:46:59;;;;;;;;;;;;;;;4.68;59.97;98881.84;5103544;27;1548;-84
2023/03/11 09:49:51;;;;;;;;;;;;;;;4.75;59.82;98868.44;5118001;27;3899;-85
2023/03/11 09:52:43;;;;;;;;;;;;;;;4.73;59.86;98871.31;5104268;28;1875;-86
2023/03/11 09:55:36;;;;;;;;;;;;;;;4.71;60.17;98865.41;5106428;27;1378;-87
2023/03/11 09:58:28;;;;;;;;;;;;;;;4.74;59.97;98861.50;5113115;27;2320;-86
2023/03/11 10:01:20;;;;;;;;;;;;;;;4.84;59.81;98861.75;5115398;27;3224;-87
2023/03/11 10:04:12;;;;;;;;;;;;;;;4.82;59.81;98861.16;5109310;28;2228;-85
2023/03/11 10:07:04;;;;;;;;;;;;;;;4.78;60.17;98862.66;5110252;28;4240;-86
2023/03/11 10:09:56;;;;;;;;;;;;;;;4.83;60.10;98852.16;5110491;28;2670;-86
2023/03/11 10:12:48;;;;;;;;;;;;;;;4.80;60.05;98844.59;5113758;28;1895;-86
2023/03/11 10:15:39;;;;;;;;;;;;;;;4.80;59.90;98851.78;5104806;28;2286;-84
2023/03/11 10:18:31;;;;;;;;;;;;;;;4.87;59.99;98852.50;5109870;28;1109;-85
2023/03/11 10:21:23;;;;;;;;;;;;;;;4.85;60.13;98851.91;5112690;28;2231;-88
2023/03/11 10:24:15;;;;;;;;;;;;;;;4.90;59.99;98844.06;5110720;28;3333;-83
2023/03/11 10:27:06;;;;;;;;;;;;;;;4.85;60.17;98844.72;5110165;28;1902;-84
2023/03/11 10:29:57;;;;;;;;;;;;;;;4.89;60.12;98837.91;5109670;28;1898;-84
2023/03/11 10:32:48;;;;;;;;;;;;;;;4.91;59.88;98835.00;5104386;28;2708;-83
2023/03/11 10:35:39;;;;;;;;;;;;;;;4.88;60.45;98830.13;5108992;28;3309;-83
2023/03/11 10:38:31;;;;;;;;;;;;;;;4.99;59.97;98827.50;5107683;28;3693;-83
2023/03/11 10:41:23;;;;;;;;;;;;;;;4.99;60.05;98835.50;5106704;28;2179;-82
2023/03/11 10:44:15;;;;;;;;;;;;;;;4.93;60.27;98830.25;5109947;28;2528;-83
2023/03/11 10:47:07;;;;;;;;;;;;;;;4.96;60.26;98827.16;5113922;28;967;-84
2023/03/11 10:49:59;;;;;;;;;;;;;;;4.99;60.12;98824.03;5111310;28;2502;-84
2023/03/11 10:52:51;;;;;;;;;;;;;;;4.97;60.31;98828.75;5107241;28;2302;-83
2023/03/11 10:55:43;;;;;;;;;;;;;;;4.97;60.36;98824.25;5111398;28;2013;-83
2023/03/11 10:58:35;;;;;;;;;;;;;;;5.05;60.15;98827.66;5106155;28;2180;-83
2023/03/11 11:01:27;;;;;;;;;;;;;;;5.07;60.20;98826.38;5102055;28;2958;-83
2023/03/11 11:04:19;;;;;;;;;;;;;;;5.06;60.31;98810.59;5109714;28;2317;-84
2023/03/11 11:07:10;;;;;;;;;;;;;;;5.10;60.13;98811.78;5105983;28;4929;-83
2023/03/11 11:10:02;;;;;;;;;;;;;;;5.06;60.52;98810.59;5111107;28;3879;-83
2023/03/11 11:12:54;;;;;;;;;;;;;;;5.09;60.55;98816.31;5096457;28;3962;-83
2023/03/11 11:15:46;;;;;;;;;;;;;;;5.16;60.28;98811.69;5105886;28;3451;-82
2023/03/11 11:18:38;;;;;;;;;;;;;;;5.14;60.20;98811.09;5108673;28;1558;-82
2023/03/11 11:21:30;;;;;;;;;;;;;;;5.13;60.54;98797.97;5110422;28;2394;-82
2023/03/11 11:24:22;;;;;;;;;;;;;;;5.16;60.33;98805.53;5101871;28;2386;-82
2023/03/11 11:27:14;;;;;;;;;;;;;;;5.17;60.38;98797.28;5115310;27;2681;-81
2023/03/11 11:30:06;;;;;;;;;;;;;;;5.21;60.23;98801.16;5108806;28;3510;-82
2023/03/11 11:32:59;;;;;;;;;;;;;;;5.20;60.31;98806.69;5112971;28;2425;-81
2023/03/11 11:35:51;;;;;;;;;;;;;;;5.17;60.48;98799.94;5114492;28;2402;-82
2023/03/11 11:38:42;;;;;;;;;;;;;;;5.16;60.59;98801.00;5110748;28;2515;-80
2023/03/11 11:41:34;;;;;;;;;;;;;;;5.23;60.61;98804.41;5115517;28;2267;-82
2023/03/11 11:44:25;;;;;;;;;;;;;;;5.25;60.51;98806.84;5109213;28;2767;-81
2023/03/11 11:47:17;;;;;;;;;;;;;;;5.27;60.53;98795.94;5109923;28;2444;-81
2023/03/11 11:50:08;;;;;;;;;;;;;;;5.28;60.43;98792.22;5109943;28;2519;-81
2023/03/11 11:53:00;;;;;;;;;;;;;;;5.31;60.53;98789.91;5109890;28;2417;-81
2023/03/11 11:55:51;;;;;;;;;;;;;;;5.34;60.61;98788.63;5114113;28;2338;-81
2023/03/11 11:58:43;;;;;;;;;;;;;;;5.39;60.48;98786.09;5113872;28;2356;-80
2023/03/11 12:01:34;;;;;;;;;;;;;;;5.40;60.41;98785.88;5117325;28;1984;-82
2023/03/11 12:04:26;;;;;;;;;;;;;;;5.39;60.51;98786.91;5104983;27;2018;-80
2023/03/11 12:07:18;;;;;;;;;;;;;;;5.44;60.66;98787.06;5112643;28;2642;-82
2023/03/11 12:10:10;;;;;;;;;;;;;;;5.41;60.68;98781.34;5113087;28;1950;-82
2023/03/11 12:13:04;;;;;;;;;;;;;;;5.48;60.57;98779.38;5103065;27;2581;-82
2023/03/11 12:15:56;;;;;;;;;;;;;;;5.51;60.45;98778.94;5111213;28;2495;-82
2023/03/11 12:18:47;;;;;;;;;;;;;;;5.48;60.66;98779.38;5110339;28;2211;-82
2023/03/11 12:21:39;;;;;;;;;;;;;;;5.52;60.51;98775.19;5114642;28;2430;-82
2023/03/11 12:24:31;;;;;;;;;;;;;;;5.56;60.43;98784.41;5111733;28;2435;-82
2023/03/11 12:27:23;;;;;;;;;;;;;;;5.54;60.71;98780.34;5103310;28;2528;-81
2023/03/11 12:30:15;;;;;;;;;;;;;;;5.56;60.76;98780.88;5112221;28;2515;-81
2023/03/11 12:33:07;;;;;;;;;;;;;;;5.61;60.87;98783.69;5114155;28;2465;-81
2023/03/11 12:35:59;;;;;;;;;;;;;;;5.59;60.63;98767.06;5111529;27;1576;-81
2023/03/11 12:38:51;;;;;;;;;;;;;;;5.62;60.74;98764.78;5114564;28;1552;-83
2023/03/11 12:41:43;;;;;;;;;;;;;;;5.64;60.59;98769.88;5106268;27;3286;-82
2023/03/11 12:44:34;;;;;;;;;;;;;;;5.65;60.92;98772.34;5109286;28;2007;-82
2023/03/11 12:47:26;;;;;;;;;;;;;;;5.68;60.82;98769.19;5110595;28;2464;-80
2023/03/11 12:50:17;;;;;;;;;;;;;;;5.72;60.72;98764.19;5112051;28;2055;-81
2023/03/11 12:53:09;;;;;;;;;;;;;;;5.66;60.97;98765.13;5114379;28;1755;-81
2023/03/11 12:56:02;;;;;;;;;;;;;;;5.73;60.72;98757.81;5113963;28;2042;-83
2023/03/11 12:58:54;;;;;;;;;;;;;;;5.73;60.88;98757.00;5113244;28;1978;-81
2023/03/11 13:01:46;;;;;;;;;;;;;;;5.75;60.70;98750.38;5112669;28;2475;-79
2023/03/11 13:04:37;;;;;;;;;;;;;;;5.76;61.00;98756.53;5112239;28;1923;-80
2023/03/11 13:07:29;;;;;;;;;;;;;;;5.75;60.83;98753.06;5111449;28;2746;-79
2023/03/11 13:10:21;;;;;;;;;;;;;;;5.83;60.74;98747.38;5112975;28;2445;-81
2023/03/11 13:13:13;;;;;;;;;;;;;;;5.80;60.79;98755.03;5112390;28;2326;-81
2023/03/11 13:16:05;;;;;;;;;;;;;;;5.86;60.76;98751.44;5106051;28;1994;-82
2023/03/11 13:18:57;;;;;;;;;;;;;;;5.87;60.97;98747.72;5111156;28;2140;-79
2023/03/11 13:21:49;;;;;;;;;;;;;;;5.83;61.16;98751.91;5114926;27;2612;-82
2023/03/11 13:24:41;;;;;;;;;;;;;;;5.89;60.75;98745.63;5104327;27;3421;-81
2023/03/11 13:27:33;;;;;;;;;;;;;;;5.86;61.03;98743.41;5112361;28;1541;-83
2023/03/11 13:30:25;;;;;;;;;;;;;;;5.85;61.17;98744.44;5106866;27;2046;-81
2023/03/11 13:33:17;;;;;;;;;;;;;;;5.87;61.08;98734.34;5109101;28;2578;-82
2023/03/11 13:36:08;;;;;;;;;;;;;;;5.92;61.08;98737.94;5114824;28;2209;-81
2023/03/11 13:39:00;;;;;;;;;;;;;;;5.96;60.92;98741.00;5102298;27;2311;-81
2023/03/11 13:41:52;;;;;;;;;;;;;;;6.01;60.68;98737.63;5112479;28;1603;-81
2023/03/11 13:44:44;;;;;;;;;;;;;;;5.95;60.99;98736.72;5113385;28;2255;-81
2023/03/11 13:47:36;;;;;;;;;;;;;;;5.94;61.19;98737.72;5112689;27;2220;-81
2023/03/11 13:50:28;;;;;;;;;;;;;;;5.97;60.97;98736.47;5109875;28;2320;-80
2023/03/11 13:53:20;;;;;;;;;;;;;;;6.00;60.75;98733.31;5108454;28;2282;-82
2023/03/11 13:56:12;;;;;;;;;;;;;;;6.07;60.87;98726.81;5103801;28;4365;-81
2023/03/11 13:59:04;;;;;;;;;;;;;;;6.04;61.16;98721.94;5111498;28;2157;-82
2023/03/11 14:01:56;;;;;;;;;;;;;;;6.07;60.92;98726.00;5110282;28;3037;-82
2023/03/11 14:04:48;;;;;;;;;;;;;;;6.10;61.03;98728.22;5110649;28;1968;-80
2023/03/11 14:07:39;;;;;;;;;;;;;;;6.07;61.24;98726.81;5110856;28;2426;-82
2023/03/11 14:10:31;;;;;;;;;;;;;;;6.13;61.16;98727.72;5106478;28;2648;-81
2023/03/11 14:13:23;;;;;;;;;;;;;;;6.13;60.91;98728.53;5095756;28;2130;-82
2023/03/11 14:16:14;;;;;;;;;;;;;;;6.12;60.98;98731.47;5112952;27;2419;-80
2023/03/11 14:19:07;;;;;;;;;;;;;;;6.12;61.14;98720.78;5106616;28;2190;-82
2023/03/11 14:21:59;;;;;;;;;;;;;;;6.25;60.89;98727.72;5105525;28;1990;-82
2023/03/11 14:24:51;;;;;;;;;;;;;;;6.23;60.85;98721.78;5104714;28;2218;-82
2023/03/11 14:27:44;;;;;;;;;;;;;;;6.24;60.83;98723.44;5113287;28;2002;-81
2023/03/11 14:30:36;;;;;;;;;;;;;;;6.28;61.02;98722.69;5111786;28;2192;-80
2023/03/11 14:33:28;;;;;;;;;;;;;;;6.28;60.84;98721.91;5114032;27;2043;-80
2023/03/11 14:36:20;;;;;;;;;;;;;;;6.33;60.94;98732.69;5111463;28;1805;-79